createdAt,value
2017-03-01T00:00:03.630Z,994.52
2017-03-01T00:05:03.194Z,994.63
2017-03-01T00:10:03.106Z,994.51
2017-03-01T00:15:02.775Z,994.71
2017-03-01T00:20:03.487Z,994.68
2017-03-01T00:25:03.257Z,994.68
2017-03-01T00:30:03.022Z,994.75
2017-03-01T00:35:03.081Z,994.84
2017-03-01T00:40:02.976Z,994.83
2017-03-01T00:45:02.906Z,994.78
2017-03-01T00:50:02.736Z,994.85
2017-03-01T00:55:02.759Z,994.84
2017-03-01T01:00:03.639Z,994.93
2017-03-01T01:05:03.031Z,994.98
2017-03-01T01:10:03.122Z,994.91
2017-03-01T01:15:03.047Z,994.97
2017-03-01T01:20:02.905Z,994.94
2017-03-01T01:25:03.605Z,995.02
2017-03-01T01:30:03.542Z,994.87
2017-03-01T01:35:03.252Z,994.98
2017-03-01T01:40:03.102Z,995.02
2017-03-01T01:45:03.173Z,994.89
2017-03-01T01:50:02.971Z,994.92
2017-03-01T01:55:02.769Z,994.88
2017-03-01T02:00:02.674Z,994.96
2017-03-01T02:05:03.506Z,994.77
2017-03-01T02:10:03.332Z,994.79
2017-03-01T02:15:03.225Z,994.78
2017-03-01T02:20:02.925Z,994.8
2017-03-01T02:25:02.979Z,994.77
2017-03-01T02:30:02.904Z,994.78
2017-03-01T02:35:02.679Z,994.72
2017-03-01T02:40:02.719Z,994.66
2017-03-01T02:45:03.697Z,994.6
2017-03-01T02:50:02.661Z,994.57
2017-03-01T02:55:03.580Z,994.53
2017-03-01T03:00:03.512Z,994.42
2017-03-01T03:05:03.277Z,994.56
2017-03-01T03:10:03.296Z,994.49
2017-03-01T03:15:03.153Z,994.47
2017-03-01T03:20:02.993Z,994.34
2017-03-01T03:25:02.750Z,994.4
2017-03-01T03:30:03.631Z,994.41
2017-03-01T03:35:03.436Z,994.37
2017-03-01T03:40:03.481Z,994.39
2017-03-01T03:45:03.348Z,994.39
2017-03-01T03:50:03.051Z,994.4
2017-03-01T03:55:02.879Z,994.42
2017-03-01T04:00:02.732Z,994.41
2017-03-01T04:05:02.823Z,994.39
2017-03-01T04:10:02.724Z,994.49
2017-03-01T04:15:03.571Z,994.3
2017-03-01T04:20:03.393Z,994.29
2017-03-01T04:25:03.243Z,994.32
2017-03-01T04:30:03.277Z,994.31
2017-03-01T04:35:03.152Z,994.37
2017-03-01T04:40:03.100Z,994.42
2017-03-01T04:45:03.237Z,994.52
2017-03-01T04:50:03.207Z,994.47
2017-03-01T04:55:03.034Z,994.6
2017-03-01T05:00:03.448Z,994.53
2017-03-01T05:05:03.202Z,994.48
2017-03-01T05:10:03.159Z,994.43
2017-03-01T05:15:02.758Z,994.57
2017-03-01T05:20:03.519Z,994.71
2017-03-01T05:25:03.356Z,994.69
2017-03-01T05:30:03.365Z,994.57
2017-03-01T05:35:03.070Z,994.81
2017-03-01T05:40:02.944Z,994.9
2017-03-01T05:45:03.636Z,994.8
2017-03-01T05:50:03.429Z,994.84
2017-03-01T05:55:03.040Z,994.89
2017-03-01T06:00:02.961Z,994.95
2017-03-01T06:05:02.927Z,995
2017-03-01T06:10:02.751Z,995.15
2017-03-01T06:15:02.700Z,995.26
2017-03-01T06:20:03.547Z,995.21
2017-03-01T06:25:03.400Z,995.39
2017-03-01T06:30:03.333Z,995.59
2017-03-01T06:35:02.965Z,995.52
2017-03-01T06:40:02.836Z,995.65
2017-03-01T06:45:03.544Z,995.84
2017-03-01T06:50:03.526Z,995.9
2017-03-01T06:55:03.386Z,995.97
2017-03-01T07:00:03.182Z,995.98
2017-03-01T07:05:02.971Z,996.1
2017-03-01T07:10:02.787Z,996.15
2017-03-01T07:15:03.512Z,996.2
2017-03-01T07:30:03.690Z,996.43
2017-03-01T07:35:03.675Z,996.73
2017-03-01T07:40:03.606Z,996.79
2017-03-01T07:45:03.640Z,996.88
2017-03-01T07:50:03.440Z,997.09
2017-03-01T07:55:03.207Z,997.2
2017-03-01T08:00:03.349Z,997.17
2017-03-01T08:05:03.076Z,997.31
2017-03-01T08:10:03.104Z,997.48
2017-03-01T08:15:02.811Z,997.59
2017-03-01T08:20:03.567Z,997.75
2017-03-01T08:25:03.358Z,997.78
2017-03-01T08:30:03.152Z,997.9
2017-03-01T08:35:03.040Z,998.08
2017-03-01T08:40:02.954Z,998.12
2017-03-01T08:45:02.739Z,998.24
2017-03-01T08:50:03.619Z,998.28
2017-03-01T08:55:03.324Z,998.42
2017-03-01T09:00:03.204Z,998.52
2017-03-01T09:05:02.991Z,998.68
2017-03-01T09:10:03.013Z,998.73
2017-03-01T09:15:02.860Z,998.79
2017-03-01T09:20:03.580Z,998.91
2017-03-01T09:25:03.367Z,998.95
2017-03-01T09:30:03.378Z,999.09
2017-03-01T09:35:03.213Z,999.1
2017-03-01T09:40:02.946Z,999.17
2017-03-01T09:45:03.044Z,999.35
2017-03-01T09:50:03.038Z,999.54
2017-03-01T09:55:02.706Z,999.5
2017-03-01T10:00:03.655Z,999.77
2017-03-01T10:05:03.656Z,999.77
2017-03-01T10:10:02.745Z,999.82
2017-03-01T10:15:03.532Z,999.85
2017-03-01T10:20:03.404Z,999.97
2017-03-01T10:25:03.224Z,999.94
2017-03-01T10:30:02.978Z,1000.09
2017-03-01T10:35:02.849Z,1000.17
2017-03-01T10:40:02.736Z,1000.26
2017-03-01T10:45:02.736Z,1000.28
2017-03-01T10:50:03.555Z,1000.35
2017-03-01T10:55:03.275Z,1000.49
2017-03-01T11:00:03.193Z,1000.43
2017-03-01T11:05:03.256Z,1000.48
2017-03-01T11:10:03.087Z,1000.47
2017-03-01T11:15:03.007Z,1000.51
2017-03-01T11:20:02.954Z,1000.56
2017-03-01T11:25:03.123Z,1000.68
2017-03-01T11:30:03.044Z,1000.62
2017-03-01T11:35:03.209Z,1000.65
2017-03-01T11:40:03.446Z,1000.71
2017-03-01T11:45:03.564Z,1000.7
2017-03-01T11:50:03.596Z,1000.71
2017-03-01T11:55:02.793Z,1000.64
2017-03-01T12:00:03.701Z,1000.71
2017-03-01T12:05:03.633Z,1000.75
2017-03-01T12:10:02.994Z,1000.77
2017-03-01T12:15:03.190Z,1000.77
2017-03-01T12:20:03.215Z,1000.64
2017-03-01T12:25:02.702Z,1000.73
2017-03-01T12:30:03.270Z,1000.6
2017-03-01T12:35:03.384Z,1000.64
2017-03-01T12:40:03.374Z,1000.59
2017-03-01T12:45:03.250Z,1000.55
2017-03-01T12:50:03.143Z,1000.59
2017-03-01T12:55:03.098Z,1000.64
2017-03-01T13:00:02.995Z,1000.6
2017-03-01T13:05:02.894Z,1000.54
2017-03-01T13:10:02.815Z,1000.51
2017-03-01T13:15:03.677Z,1000.48
2017-03-01T13:20:03.526Z,1000.54
2017-03-01T13:25:03.595Z,1000.48
2017-03-01T13:30:03.597Z,1000.57
2017-03-01T13:35:03.676Z,1000.56
2017-03-01T13:40:02.740Z,1000.49
2017-03-01T13:45:03.440Z,1000.52
2017-03-01T13:50:03.407Z,1000.54
2017-03-01T13:55:03.371Z,1000.64
2017-03-01T14:00:03.166Z,1000.55
2017-03-01T14:05:03.094Z,1000.55
2017-03-01T14:10:02.946Z,1000.56
2017-03-01T14:15:02.749Z,1000.54
2017-03-01T14:20:03.681Z,1000.62
2017-03-01T14:25:03.595Z,1000.56
2017-03-01T14:30:03.405Z,1000.57
2017-03-01T14:35:03.597Z,1000.67
2017-03-01T14:40:03.372Z,1000.51
2017-03-01T14:45:03.288Z,1000.54
2017-03-01T14:50:03.264Z,1000.53
2017-03-01T14:55:03.271Z,1000.56
2017-03-01T15:00:02.757Z,1000.7
2017-03-01T15:05:02.732Z,1000.65
2017-03-01T15:10:02.975Z,1000.57
2017-03-01T15:15:03.192Z,1000.57
2017-03-01T15:20:02.867Z,1000.54
2017-03-01T15:25:02.771Z,1000.47
2017-03-01T15:30:03.607Z,1000.55
2017-03-01T15:35:03.491Z,1000.52
2017-03-01T15:40:03.415Z,1000.49
2017-03-01T15:45:03.508Z,1000.49
2017-03-01T15:50:03.485Z,1000.56
2017-03-01T15:55:03.407Z,1000.59
2017-03-01T16:00:03.467Z,1000.47
2017-03-01T16:05:03.229Z,1000.44
2017-03-01T16:10:03.282Z,1000.39
2017-03-01T16:15:03.389Z,1000.32
2017-03-01T16:20:03.109Z,1000.29
2017-03-01T16:25:02.915Z,1000.14
2017-03-01T16:30:03.044Z,1000.21
2017-03-01T16:35:02.848Z,1000.12
2017-03-01T16:40:03.682Z,1000.16
2017-03-01T16:45:03.619Z,1000.17
2017-03-01T16:50:03.420Z,1000.12
2017-03-01T16:55:03.101Z,1000.08
2017-03-01T17:00:02.774Z,999.99
2017-03-01T17:05:02.834Z,999.87
2017-03-01T17:10:02.737Z,999.95
2017-03-01T17:15:03.560Z,999.9
2017-03-01T17:20:03.524Z,999.9
2017-03-01T17:25:03.377Z,999.98
2017-03-01T17:30:03.228Z,999.89
2017-03-01T17:35:03.035Z,999.89
2017-03-01T17:40:03.058Z,999.86
2017-03-01T17:45:02.935Z,999.78
2017-03-01T17:50:02.975Z,999.82
2017-03-01T17:55:02.803Z,999.8
2017-03-01T18:00:03.591Z,999.98
2017-03-01T18:05:03.363Z,999.89
2017-03-01T18:10:03.111Z,999.88
2017-03-01T18:15:03.232Z,999.77
2017-03-01T18:20:02.918Z,999.64
2017-03-01T18:25:02.736Z,999.68
2017-03-01T18:30:02.773Z,999.69
2017-03-01T18:35:03.582Z,999.49
2017-03-01T18:40:03.669Z,999.39
2017-03-01T18:45:03.717Z,999.41
2017-03-01T18:50:02.720Z,999.36
2017-03-01T18:55:03.378Z,999.34
2017-03-01T19:00:03.197Z,999.26
2017-03-01T19:05:03.042Z,999.29
2017-03-01T19:10:02.737Z,999.3
2017-03-01T19:15:03.597Z,999.3
2017-03-01T19:20:03.658Z,999.2
2017-03-01T19:25:03.407Z,999.09
2017-03-01T19:30:03.213Z,999.1
2017-03-01T19:35:02.990Z,999.11
2017-03-01T19:40:03.078Z,998.92
2017-03-01T19:45:02.701Z,998.94
2017-03-01T19:50:03.440Z,998.88
2017-03-01T19:55:03.203Z,998.82
2017-03-01T20:00:02.964Z,998.69
2017-03-01T20:05:02.896Z,998.78
2017-03-01T20:10:02.733Z,998.64
2017-03-01T20:15:02.748Z,998.6
2017-03-01T20:20:03.554Z,998.48
2017-03-01T20:25:03.404Z,998.29
2017-03-01T20:30:03.177Z,998.22
2017-03-01T20:35:02.882Z,998.19
2017-03-01T20:40:02.688Z,998.2
2017-03-01T20:45:03.461Z,998.16
2017-03-01T20:50:03.238Z,998.15
2017-03-01T20:55:03.339Z,998.2
2017-03-01T21:00:03.171Z,998.23
2017-03-01T21:05:02.872Z,998.17
2017-03-01T21:10:02.778Z,998.11
2017-03-01T21:15:03.527Z,998.07
2017-03-01T21:20:03.526Z,997.99
2017-03-01T21:25:03.352Z,997.9
2017-03-01T21:30:03.246Z,997.83
2017-03-01T21:35:02.945Z,997.82
2017-03-01T21:40:02.881Z,997.75
2017-03-01T21:45:03.536Z,997.72
2017-03-01T21:50:03.537Z,997.52
2017-03-01T21:55:03.208Z,997.48
2017-03-01T22:00:03.405Z,997.5
2017-03-01T22:05:03.233Z,997.49
2017-03-01T22:10:03.084Z,997.55
2017-03-01T22:15:02.905Z,997.38
2017-03-01T22:20:02.858Z,997.32
2017-03-01T22:25:03.474Z,997.3
2017-03-01T22:30:03.275Z,997.21
2017-03-01T22:35:03.238Z,997.11
2017-03-01T22:40:03.204Z,997.09
2017-03-01T22:45:03.220Z,997.09
2017-03-01T22:50:03.010Z,997.14
2017-03-01T22:55:02.872Z,997.12
2017-03-01T23:00:03.481Z,997.11
2017-03-01T23:05:03.351Z,997.1
2017-03-01T23:10:03.086Z,997.07
2017-03-01T23:15:03.135Z,996.97
2017-03-01T23:20:02.837Z,997.02
2017-03-01T23:25:02.812Z,997
2017-03-01T23:30:02.848Z,997.06
2017-03-01T23:35:03.564Z,997.1
2017-03-01T23:40:03.589Z,997.23
2017-03-01T23:45:03.585Z,997.24
2017-03-01T23:50:03.342Z,997.29
2017-03-01T23:55:03.181Z,997.26
